Aeroporto :
LOGIN :

Iscrizione | Disclaimer

   EN    FR    IT 

 










Sommario :    VFR   VFR Marginale   IFR   IFR Intensivo   IFR Molto Intensivo
Visibilità : 
Base nubi : 
>= 8 km
>= 3000ft
5 / 8 km
1000 / 3000 ft
1500m / 5 km
500 / 1000 ft
800 / 1500m
200 / 500 ft
< 800m
< 200 ft
Simboli :   Temporali  Nebbia  Neve Forte  Precipitazioni Forti  Vento > 20 kt
SIGMETs :   Varie  Temporali  Ghiacco  Turbolenza  Onda orograficha  Ceneri Vulcaniche






- Altitudine del aeroporto : 370 ft


EBBE - Beauvechain AB

ULTIMO METAR :
  • 180425Z AUTO 18009KT 9999 FEW021/// BKN040/// 13/12 Q1005 BLU

METARs OBSOLETI :
  • 180355Z AUTO 18009KT 9999 FEW029/// SCT041/// BKN075/// 13/11 Q1006 BLU
  • 180325Z AUTO 19009KT 9999 BKN170/// 13/11 Q1006 BLU
  • 180255Z AUTO 20009KT 9999 FEW021/// 13/12 Q1006 BLU
  • 180225Z AUTO 19007KT 9999 FEW018/// SCT029/// BKN190/// 13/12 Q1006 BLU
  • 180222Z AUTO 19008KT 9999 FEW018/// SCT024/// BKN170/// 13/12 Q1006 WHT
  • 180155Z AUTO 17007KT 9999 FEW019/// SCT037/// BKN070/// 13/12 Q1007 BLU

TAF TAF EBBE
Valido dal 17 a 19 ore il 18 a 07 ore UTC


171541Z 1719/1807 20010KT 9999 FEW020 SCT060
PROB40
TEMPO 1719/1807 4000 SHRA BKN020



MetMap, La meteo Aeronautica in un colpo d'occhio ! - Copyright ORBIFLY Dicembre 2007 - Disclaimer

ORBIFLY MET'MAP TEAM :

Programmazione e sviluppo : Alexandra Zaïnal
Concezione e sviluppo : Baudouin d'Aumeries
Co-Programmazione e sviluppo : Marc-Olivier Méhu
Supporto tecnico e logistico : Manuel Goepfert
Aiuto per la traduzione : Arnaldo La Scala

Contatto : metmap@orbifly.com




FONTI E CREDITI :

   NOAA